www.cux-wetter.de
Wetterdaten: Sonntag, 01.12.2013
Datum Zeit Temp. A. Feuchte A. Luftdruck Regen Wind Richtung Richtung Sonnenschein Solar Taupunkt Windchill Windben
01.12.2013 00:00 7,8 C 80 % 1022,5 hPa 0,0 l/m 12,8 km/h (3 Bft) NW 320 0 min 0 W/m 4,6 C 3,6 C 12,8 km/h (3 Bft)
01.12.2013 00:15 7,8 C 80 % 1022,5 hPa 0,0 l/m 12,9 km/h (3 Bft) NW 325 0 min 0 W/m 4,6 C 3,5 C 12,9 km/h (3 Bft)
01.12.2013 00:30 7,9 C 80 % 1022,5 hPa 0,0 l/m 13,7 km/h (3 Bft) NW 320 0 min 0 W/m 4,7 C 3,2 C 13,7 km/h (3 Bft)
01.12.2013 00:45 7,9 C 80 % 1022,5 hPa 0,0 l/m 12,7 km/h (3 Bft) NW 325 0 min 0 W/m 4,7 C 3,7 C 12,7 km/h (3 Bft)
01.12.2013 01:00 7,9 C 80 % 1022,5 hPa 0,0 l/m 13,2 km/h (3 Bft) NW 325 0 min 0 W/m 4,7 C 3,5 C 13,2 km/h (3 Bft)
01.12.2013 01:15 7,8 C 80 % 1022,5 hPa 0,0 l/m 14,9 km/h (3 Bft) NW 315 0 min 0 W/m 4,6 C 2,5 C 14,9 km/h (3 Bft)
01.12.2013 01:29 7,8 C 79 % 1022,5 hPa 0,0 l/m 16,0 km/h (3 Bft) NW 310 0 min 0 W/m 4,4 C 2,0 C 16,0 km/h (3 Bft)
01.12.2013 01:45 7,9 C 80 % 1022,5 hPa 0,0 l/m 14,8 km/h (3 Bft) NW 320 0 min 0 W/m 4,7 C 2,7 C 14,8 km/h (3 Bft)
01.12.2013 02:00 7,9 C 80 % 1022,5 hPa 0,0 l/m 15,5 km/h (3 Bft) NW 310 0 min 0 W/m 4,7 C 2,4 C 15,5 km/h (3 Bft)
01.12.2013 02:15 7,9 C 80 % 1022,5 hPa 0,0 l/m 17,9 km/h (3 Bft) NW 310 0 min 0 W/m 4,7 C 1,4 C 17,9 km/h (3 Bft)
01.12.2013 02:30 8,0 C 80 % 1022,5 hPa 0,0 l/m 19,3 km/h (3 Bft) NW 315 0 min 0 W/m 4,8 C 1,0 C 19,3 km/h (3 Bft)
01.12.2013 02:45 8,0 C 80 % 1022,5 hPa 0,0 l/m 13,5 km/h (3 Bft) W-NW 300 0 min 0 W/m 4,8 C 3,4 C 13,5 km/h (3 Bft)
01.12.2013 03:00 8,0 C 81 % 1022,5 hPa 0,0 l/m 17,7 km/h (3 Bft) NW 305 0 min 0 W/m 4,9 C 1,6 C 17,7 km/h (3 Bft)
01.12.2013 03:15 8,0 C 81 % 1022,5 hPa 0,0 l/m 16,1 km/h (3 Bft) W-NW 295 0 min 0 W/m 4,9 C 2,2 C 16,1 km/h (3 Bft)
01.12.2013 03:30 8,0 C 81 % 1022,5 hPa 0,0 l/m 18,0 km/h (3 Bft) W-NW 300 0 min 0 W/m 4,9 C 1,4 C 18,0 km/h (3 Bft)
01.12.2013 03:45 8,0 C 82 % 1022,5 hPa 0,0 l/m 20,2 km/h (4 Bft) W-NW 300 0 min 0 W/m 5,1 C 0,6 C 20,2 km/h (4 Bft)
01.12.2013 04:00 8,0 C 83 % 1022,5 hPa 0,0 l/m 19,6 km/h (3 Bft) W-NW 300 0 min 0 W/m 5,3 C 0,8 C 19,6 km/h (3 Bft)
01.12.2013 04:15 8,0 C 84 % 1022,5 hPa 0,0 l/m 29,3 km/h (5 Bft) NW 310 0 min 0 W/m 5,5 C -2,0 C 29,3 km/h (5 Bft)
01.12.2013 04:30 8,0 C 84 % 1022,5 hPa 0,0 l/m 25,6 km/h (4 Bft) NW 310 0 min 0 W/m 5,5 C -1,0 C 25,6 km/h (4 Bft)
01.12.2013 04:45 8,0 C 84 % 1022,5 hPa 0,0 l/m 19,7 km/h (3 Bft) W-NW 295 0 min 0 W/m 5,5 C 0,8 C 19,7 km/h (3 Bft)
01.12.2013 05:00 8,0 C 84 % 1022,5 hPa 0,3 l/m 16,1 km/h (3 Bft) W-NW 285 0 min 0 W/m 5,5 C 2,2 C 16,1 km/h (3 Bft)
01.12.2013 05:15 8,0 C 84 % 1022,5 hPa 0,0 l/m 18,7 km/h (3 Bft) W-NW 285 0 min 0 W/m 5,5 C 1,2 C 18,7 km/h (3 Bft)
01.12.2013 05:29 7,9 C 84 % 1021,5 hPa 0,0 l/m 19,7 km/h (3 Bft) W 275 0 min 0 W/m 5,4 C 0,7 C 19,7 km/h (3 Bft)
01.12.2013 05:45 7,8 C 84 % 1021,5 hPa 0,0 l/m 14,6 km/h (3 Bft) W 280 0 min 0 W/m 5,3 C 2,7 C 14,6 km/h (3 Bft)
01.12.2013 06:00 7,8 C 84 % 1021,5 hPa 0,0 l/m 15,8 km/h (3 Bft) W-NW 290 0 min 0 W/m 5,3 C 2,1 C 15,8 km/h (3 Bft)
01.12.2013 06:15 7,9 C 84 % 1022,5 hPa 0,0 l/m 19,4 km/h (3 Bft) NW 305 0 min 0 W/m 5,4 C 0,8 C 19,4 km/h (3 Bft)
01.12.2013 06:30 8,0 C 84 % 1022,5 hPa 0,0 l/m 18,6 km/h (3 Bft) W-NW 290 0 min 0 W/m 5,5 C 1,2 C 18,6 km/h (3 Bft)
01.12.2013 06:45 8,0 C 84 % 1022,5 hPa 0,0 l/m 18,4 km/h (3 Bft) W-NW 300 0 min 0 W/m 5,5 C 1,3 C 18,4 km/h (3 Bft)
01.12.2013 06:59 8,1 C 84 % 1022,5 hPa 0,0 l/m 24,1 km/h (4 Bft) W-NW 295 0 min 0 W/m 5,6 C -0,5 C 24,1 km/h (4 Bft)
01.12.2013 07:15 8,1 C 84 % 1022,5 hPa 0,0 l/m 29,3 km/h (5 Bft) NW 315 0 min 0 W/m 5,6 C -1,9 C 29,3 km/h (5 Bft)
01.12.2013 07:30 8,4 C 83 % 1022,5 hPa 0,0 l/m 33,8 km/h (5 Bft) NW 310 0 min 0 W/m 5,7 C -2,4 C 33,8 km/h (5 Bft)
01.12.2013 07:45 8,4 C 83 % 1022,5 hPa 0,0 l/m 34,2 km/h (5 Bft) NW 315 0 min 0 W/m 5,7 C -2,5 C 34,2 km/h (5 Bft)
01.12.2013 08:00 8,4 C 82 % 1022,5 hPa 0,0 l/m 28,8 km/h (5 Bft) NW 310 0 min 0 W/m 5,5 C -1,3 C 28,8 km/h (5 Bft)
01.12.2013 08:15 8,4 C 82 % 1022,5 hPa 0,0 l/m 27,6 km/h (5 Bft) NW 310 0 min 0 W/m 5,5 C -1,0 C 27,6 km/h (5 Bft)
01.12.2013 08:30 8,5 C 82 % 1022,5 hPa 0,0 l/m 28,9 km/h (5 Bft) NW 320 0 min 0 W/m 5,6 C -1,2 C 28,9 km/h (5 Bft)
01.12.2013 08:45 8,6 C 82 % 1022,5 hPa 0,0 l/m 29,9 km/h (5 Bft) NW 315 0 min 0 W/m 5,7 C -1,3 C 29,9 km/h (5 Bft)
01.12.2013 09:00 8,6 C 82 % 1022,5 hPa 0,0 l/m 28,9 km/h (5 Bft) NW 310 0 min 0 W/m 5,7 C -1,1 C 28,9 km/h (5 Bft)
01.12.2013 09:15 8,7 C 83 % 1022,5 hPa 0,0 l/m 24,4 km/h (4 Bft) NW 315 0 min 0 W/m 6,0 C 0,2 C 24,4 km/h (4 Bft)
01.12.2013 09:30 8,7 C 83 % 1022,5 hPa 0,0 l/m 26,3 km/h (4 Bft) NW 320 0 min 0 W/m 6,0 C -0,3 C 26,3 km/h (4 Bft)
01.12.2013 09:45 8,8 C 83 % 1022,5 hPa 0,0 l/m 25,5 km/h (4 Bft) NW 315 0 min 0 W/m 6,1 C 0,1 C 25,5 km/h (4 Bft)
01.12.2013 10:00 8,8 C 83 % 1022,5 hPa 0,0 l/m 28,5 km/h (5 Bft) NW 310 0 min 0 W/m 6,1 C -0,7 C 28,5 km/h (5 Bft)
01.12.2013 10:15 8,9 C 84 % 1023,5 hPa 0,0 l/m 24,3 km/h (4 Bft) NW 320 0 min 0 W/m 6,3 C 0,5 C 24,3 km/h (4 Bft)
01.12.2013 10:30 8,9 C 84 % 1023,5 hPa 0,3 l/m 25,5 km/h (4 Bft) NW 305 0 min 0 W/m 6,3 C 0,2 C 25,5 km/h (4 Bft)
01.12.2013 10:45 9,0 C 84 % 1023,5 hPa 0,0 l/m 37,2 km/h (5 Bft) NW 325 0 min 0 W/m 6,4 C -2,1 C 37,2 km/h (5 Bft)
01.12.2013 11:00 9,0 C 84 % 1023,5 hPa 0,0 l/m 24,3 km/h (4 Bft) NW 315 0 min 0 W/m 6,4 C 0,7 C 24,3 km/h (4 Bft)
01.12.2013 11:15 9,1 C 85 % 1023,5 hPa 0,0 l/m 22,2 km/h (4 Bft) NW 315 0 min 0 W/m 6,7 C 1,4 C 22,2 km/h (4 Bft)
01.12.2013 11:30 9,1 C 84 % 1023,5 hPa 0,0 l/m 22,0 km/h (4 Bft) NW 315 0 min 0 W/m 6,5 C 1,5 C 22,0 km/h (4 Bft)
01.12.2013 11:45 9,2 C 84 % 1023,5 hPa 0,0 l/m 25,3 km/h (4 Bft) NW 320 0 min 0 W/m 6,6 C 0,7 C 25,3 km/h (4 Bft)
01.12.2013 12:00 9,2 C 83 % 1023,5 hPa 0,0 l/m 33,1 km/h (5 Bft) N-NW 340 0 min 0 W/m 6,5 C -1,1 C 33,1 km/h (5 Bft)
01.12.2013 12:15 9,5 C 83 % 1023,5 hPa 0,0 l/m 29,4 km/h (5 Bft) NW 325 0 min 0 W/m 6,8 C 0,1 C 29,4 km/h (5 Bft)
01.12.2013 12:30 9,5 C 82 % 1023,5 hPa 0,0 l/m 27,6 km/h (5 Bft) NW 315 0 min 0 W/m 6,6 C 0,5 C 27,6 km/h (5 Bft)
01.12.2013 12:44 9,6 C 82 % 1022,5 hPa 0,0 l/m 27,2 km/h (5 Bft) NW 325 0 min 0 W/m 6,7 C 0,7 C 27,2 km/h (5 Bft)
01.12.2013 13:00 9,5 C 82 % 1023,5 hPa 0,0 l/m 29,6 km/h (5 Bft) NW 325 0 min 0 W/m 6,6 C 0,0 C 29,6 km/h (5 Bft)
01.12.2013 13:15 9,5 C 81 % 1023,5 hPa 0,0 l/m 28,1 km/h (5 Bft) N-NW 330 0 min 0 W/m 6,4 C 0,4 C 28,1 km/h (5 Bft)
01.12.2013 13:30 9,6 C 81 % 1023,5 hPa 0,0 l/m 27,7 km/h (5 Bft) N-NW 340 0 min 0 W/m 6,5 C 0,6 C 27,7 km/h (5 Bft)
01.12.2013 13:44 9,6 C 81 % 1022,5 hPa 0,0 l/m 24,3 km/h (4 Bft) N-NW 335 0 min 0 W/m 6,5 C 1,5 C 24,3 km/h (4 Bft)
01.12.2013 14:00 9,5 C 79 % 1023,5 hPa 0,0 l/m 34,2 km/h (5 Bft) N-NW 335 0 min 0 W/m 6,0 C -0,9 C 34,2 km/h (5 Bft)
01.12.2013 14:15 9,4 C 79 % 1023,5 hPa 0,0 l/m 25,4 km/h (4 Bft) N-NW 340 0 min 0 W/m 5,9 C 0,9 C 25,4 km/h (4 Bft)
01.12.2013 14:30 9,4 C 77 % 1023,5 hPa 0,0 l/m 29,6 km/h (5 Bft) N-NW 340 0 min 0 W/m 5,6 C -0,1 C 29,6 km/h (5 Bft)
01.12.2013 14:45 9,5 C 74 % 1023,5 hPa 0,0 l/m 35,3 km/h (5 Bft) N-NO 20 0 min 0 W/m 5,1 C -1,1 C 35,3 km/h (5 Bft)
01.12.2013 15:00 9,4 C 76 % 1023,5 hPa 0,0 l/m 21,4 km/h (4 Bft) N-NO 15 0 min 0 W/m 5,4 C 2,1 C 21,4 km/h (4 Bft)
01.12.2013 15:15 9,2 C 76 % 1024,5 hPa 0,0 l/m 20,0 km/h (4 Bft) N 350 0 min 0 W/m 5,2 C 2,3 C 20,0 km/h (4 Bft)
01.12.2013 15:30 9,1 C 76 % 1024,5 hPa 0,0 l/m 13,6 km/h (3 Bft) N-NW 340 0 min 0 W/m 5,1 C 4,7 C 13,6 km/h (3 Bft)
01.12.2013 15:45 9,1 C 77 % 1024,5 hPa 0,0 l/m 17,6 km/h (3 Bft) N-NW 340 0 min 0 W/m 5,3 C 3,0 C 17,6 km/h (3 Bft)
01.12.2013 16:00 9,0 C 78 % 1024,5 hPa 0,0 l/m 25,5 km/h (4 Bft) N-NW 345 0 min 0 W/m 5,4 C 0,3 C 25,5 km/h (4 Bft)
01.12.2013 16:15 8,8 C 78 % 1024,5 hPa 0,0 l/m 23,8 km/h (4 Bft) N-NW 345 0 min 0 W/m 5,2 C 0,5 C 23,8 km/h (4 Bft)
01.12.2013 16:29 8,7 C 77 % 1024,5 hPa 0,0 l/m 23,0 km/h (4 Bft) N-NO 25 0 min 0 W/m 4,9 C 0,6 C 23,0 km/h (4 Bft)
01.12.2013 16:45 8,6 C 78 % 1024,5 hPa 0,0 l/m 18,9 km/h (3 Bft) N-NO 15 0 min 0 W/m 5,0 C 1,9 C 18,9 km/h (3 Bft)
01.12.2013 17:00 8,4 C 78 % 1025,5 hPa 0,0 l/m 22,0 km/h (4 Bft) N-NW 335 0 min 0 W/m 4,8 C 0,6 C 22,0 km/h (4 Bft)
01.12.2013 17:15 8,5 C 78 % 1025,5 hPa 0,0 l/m 20,4 km/h (4 Bft) N 5 0 min 0 W/m 4,9 C 1,2 C 20,4 km/h (4 Bft)
01.12.2013 17:29 8,4 C 78 % 1025,5 hPa 0,0 l/m 16,4 km/h (3 Bft) N-NW 345 0 min 0 W/m 4,8 C 2,6 C 16,4 km/h (3 Bft)
01.12.2013 17:45 8,4 C 78 % 1025,5 hPa 0,0 l/m 16,8 km/h (3 Bft) N-NW 340 0 min 0 W/m 4,8 C 2,4 C 16,8 km/h (3 Bft)
01.12.2013 18:00 8,4 C 78 % 1025,5 hPa 0,0 l/m 20,8 km/h (4 Bft) N-NW 340 0 min 0 W/m 4,8 C 0,9 C 20,8 km/h (4 Bft)
01.12.2013 18:15 8,4 C 79 % 1025,5 hPa 0,0 l/m 25,8 km/h (4 Bft) N 5 0 min 0 W/m 5,0 C -0,6 C 25,8 km/h (4 Bft)
01.12.2013 18:30 8,3 C 78 % 1025,5 hPa 0,0 l/m 25,8 km/h (4 Bft) N-NO 15 0 min 0 W/m 4,7 C -0,7 C 25,8 km/h (4 Bft)
01.12.2013 18:45 8,2 C 78 % 1025,5 hPa 0,0 l/m 30,4 km/h (5 Bft) N 5 0 min 0 W/m 4,6 C -2,0 C 30,4 km/h (5 Bft)
01.12.2013 19:00 8,2 C 78 % 1026,5 hPa 0,0 l/m 23,5 km/h (4 Bft) N 5 0 min 0 W/m 4,6 C -0,2 C 23,5 km/h (4 Bft)
01.12.2013 19:15 8,2 C 78 % 1026,5 hPa 0,0 l/m 21,9 km/h (4 Bft) N 360 0 min 0 W/m 4,6 C 0,3 C 21,9 km/h (4 Bft)
01.12.2013 19:30 8,1 C 78 % 1026,5 hPa 0,0 l/m 20,0 km/h (4 Bft) N-NO 20 0 min 0 W/m 4,5 C 0,8 C 20,0 km/h (4 Bft)
01.12.2013 19:45 8,1 C 79 % 1026,5 hPa 0,0 l/m 19,1 km/h (3 Bft) N 10 0 min 0 W/m 4,7 C 1,2 C 19,1 km/h (3 Bft)
01.12.2013 20:00 8,0 C 79 % 1026,5 hPa 0,0 l/m 15,5 km/h (3 Bft) N 355 0 min 0 W/m 4,6 C 2,5 C 15,5 km/h (3 Bft)
01.12.2013 20:15 8,0 C 79 % 1027,5 hPa 0,0 l/m 18,1 km/h (3 Bft) N 355 0 min 0 W/m 4,6 C 1,4 C 18,1 km/h (3 Bft)
01.12.2013 20:30 7,9 C 79 % 1027,5 hPa 0,0 l/m 19,5 km/h (3 Bft) N-NO 20 0 min 0 W/m 4,5 C 0,8 C 19,5 km/h (3 Bft)
01.12.2013 20:45 7,9 C 79 % 1027,5 hPa 0,0 l/m 21,7 km/h (4 Bft) NO 35 0 min 0 W/m 4,5 C -0,0 C 21,7 km/h (4 Bft)
01.12.2013 21:00 7,9 C 79 % 1027,5 hPa 0,0 l/m 18,5 km/h (3 Bft) N-NO 15 0 min 0 W/m 4,5 C 1,1 C 18,5 km/h (3 Bft)
01.12.2013 21:15 8,0 C 79 % 1027,5 hPa 0,0 l/m 23,8 km/h (4 Bft) N-NO 25 0 min 0 W/m 4,6 C -0,5 C 23,8 km/h (4 Bft)
01.12.2013 21:30 8,0 C 79 % 1028,5 hPa 0,0 l/m 20,3 km/h (4 Bft) NO 35 0 min 0 W/m 4,6 C 0,6 C 20,3 km/h (4 Bft)
01.12.2013 21:45 7,9 C 78 % 1028,5 hPa 0,0 l/m 20,1 km/h (4 Bft) NO 40 0 min 0 W/m 4,3 C 0,5 C 20,1 km/h (4 Bft)
01.12.2013 22:00 7,7 C 78 % 1028,5 hPa 0,0 l/m 18,0 km/h (3 Bft) N-NO 15 0 min 0 W/m 4,1 C 1,1 C 18,0 km/h (3 Bft)
01.12.2013 22:15 7,6 C 78 % 1028,5 hPa 0,0 l/m 16,0 km/h (3 Bft) N-NO 25 0 min 0 W/m 4,0 C 1,8 C 16,0 km/h (3 Bft)
01.12.2013 22:30 7,6 C 78 % 1028,5 hPa 0,0 l/m 14,9 km/h (3 Bft) NO 35 0 min 0 W/m 4,0 C 2,3 C 14,9 km/h (3 Bft)
01.12.2013 22:45 7,6 C 79 % 1029,5 hPa 0,0 l/m 12,8 km/h (3 Bft) N 5 0 min 0 W/m 4,2 C 3,3 C 12,8 km/h (3 Bft)
01.12.2013 23:00 7,6 C 79 % 1029,5 hPa 0,0 l/m 15,4 km/h (3 Bft) N-NO 20 0 min 0 W/m 4,2 C 2,0 C 15,4 km/h (3 Bft)
01.12.2013 23:15 7,5 C 79 % 1029,5 hPa 0,0 l/m 16,8 km/h (3 Bft) N-NO 20 0 min 0 W/m 4,1 C 1,3 C 16,8 km/h (3 Bft)
01.12.2013 23:30 7,4 C 79 % 1029,5 hPa 0,0 l/m 16,0 km/h (3 Bft) NO 45 0 min 0 W/m 4,0 C 1,5 C 16,0 km/h (3 Bft)
01.12.2013 23:45 7,4 C 79 % 1029,5 hPa 0,0 l/m 18,2 km/h (3 Bft) NO 35 0 min 0 W/m 4,0 C 0,6 C 18,2 km/h (3 Bft)
_ Min-Zeit 23:30 14:45 05:29 - 00:45 - - - - 23:30 07:45 00:45
Minimum _ 7,4 C 74 % 1021,5 hPa - 12,7 km/h (3 Bft) - - - - 4,0 C -2,5 C 12,7 km/h (3 Bft)
_ Max-Zeit 12:44 11:15 22:45 05:00 10:45 - - 00:00 00:00 12:15 15:30 10:45
Maximum _ 9,6 C 85 % 1029,5 hPa 0,3 l/m 37,2 km/h
NW (5 Bft)
- - 0 min 0 W/m 6,8 C 4,7 C 37,2 km/h
N-NW (5 Bft)
Durchschnitt _ 8,4 C 81 % 1024,2 hPa #0,6 l/m 22,0 km/h (4 Bft) NW - #0 min. 0 W/m 5,2 C 0,8 C 22,0 km/h (4 Bft)
copyright by Holger Just